createdAt,value
2018-05-19T00:02:03.920Z,99.60
2018-05-19T00:04:36.311Z,99.70
2018-05-19T00:07:08.643Z,99.70
2018-05-19T00:09:41.139Z,99.90
2018-05-19T00:12:13.394Z,99.90
2018-05-19T00:14:45.506Z,99.90
2018-05-19T00:17:17.832Z,99.90
2018-05-19T00:19:50.269Z,99.90
2018-05-19T00:22:23.587Z,99.90
2018-05-19T00:24:56.088Z,99.90
2018-05-19T00:27:28.488Z,99.90
2018-05-19T00:30:00.960Z,99.90
2018-05-19T00:32:33.322Z,99.90
2018-05-19T00:35:05.981Z,99.90
2018-05-19T00:37:38.706Z,99.90
2018-05-19T00:40:11.279Z,99.90
2018-05-19T00:42:43.554Z,99.90
2018-05-19T00:45:15.972Z,99.90
2018-05-19T00:47:48.403Z,99.90
2018-05-19T00:50:20.771Z,99.90
2018-05-19T00:52:53.878Z,99.90
2018-05-19T00:55:26.082Z,99.90
2018-05-19T00:57:58.479Z,99.90
2018-05-19T01:00:30.905Z,99.90
2018-05-19T01:03:03.254Z,99.90
2018-05-19T01:05:36.519Z,99.90
2018-05-19T01:08:08.840Z,99.90
2018-05-19T01:10:41.144Z,99.90
2018-05-19T01:13:13.421Z,99.90
2018-05-19T01:15:45.729Z,99.90
2018-05-19T01:18:18.937Z,99.90
2018-05-19T01:20:51.094Z,99.90
2018-05-19T01:23:23.558Z,99.90
2018-05-19T01:25:55.939Z,99.90
2018-05-19T01:28:28.391Z,99.90
2018-05-19T01:31:01.310Z,99.90
2018-05-19T01:33:33.605Z,99.90
2018-05-19T01:36:06.051Z,99.90
2018-05-19T01:38:38.408Z,99.90
2018-05-19T01:41:10.670Z,99.90
2018-05-19T01:43:43.074Z,99.90
2018-05-19T01:46:15.505Z,99.90
2018-05-19T01:48:48.551Z,99.90
2018-05-19T01:51:20.759Z,99.90
2018-05-19T01:53:53.165Z,99.90
2018-05-19T01:56:25.668Z,99.90
2018-05-19T01:58:58.750Z,99.90
2018-05-19T02:01:31.133Z,99.90
2018-05-19T02:04:03.531Z,99.90
2018-05-19T02:06:36.035Z,99.90
2018-05-19T02:09:08.386Z,99.90
2018-05-19T02:11:40.843Z,99.90
2018-05-19T02:14:13.308Z,99.90
2018-05-19T02:16:45.646Z,99.90
2018-05-19T02:19:18.176Z,99.90
2018-05-19T02:21:51.255Z,99.90
2018-05-19T02:24:23.677Z,99.90
2018-05-19T02:26:55.925Z,99.90
2018-05-19T02:29:28.126Z,99.90
2018-05-19T02:32:00.488Z,99.90
2018-05-19T02:34:32.966Z,99.90
2018-05-19T02:37:06.067Z,99.90
2018-05-19T02:39:38.501Z,99.90
2018-05-19T02:42:10.835Z,99.90
2018-05-19T02:44:43.151Z,99.90
2018-05-19T02:47:15.551Z,99.90
2018-05-19T02:49:47.982Z,99.90
2018-05-19T02:52:20.340Z,99.90
2018-05-19T02:54:52.634Z,99.90
2018-05-19T02:57:26.010Z,99.90
2018-05-19T03:00:24.127Z,99.90
2018-05-19T03:02:56.401Z,99.90
2018-05-19T03:05:28.603Z,99.90
2018-05-19T03:08:01.028Z,99.90
2018-05-19T03:10:33.416Z,99.90
2018-05-19T03:13:05.948Z,99.90
2018-05-19T03:15:38.240Z,99.90
2018-05-19T03:18:10.735Z,99.90
2018-05-19T03:20:43.078Z,99.90
2018-05-19T03:23:16.146Z,99.90
2018-05-19T03:25:48.406Z,99.90
2018-05-19T03:28:21.523Z,99.90
2018-05-19T03:30:53.970Z,99.90
2018-05-19T03:33:26.419Z,99.90
2018-05-19T03:35:59.656Z,99.90
2018-05-19T03:38:32.075Z,99.90
2018-05-19T03:41:04.485Z,99.90
2018-05-19T03:43:37.686Z,99.90
2018-05-19T03:46:10.687Z,99.90
2018-05-19T03:48:43.866Z,99.90
2018-05-19T03:51:16.260Z,99.90
2018-05-19T03:53:48.526Z,99.90
2018-05-19T03:56:21.034Z,99.90
2018-05-19T03:59:05.855Z,99.90
2018-05-19T04:01:50.702Z,99.90
2018-05-19T04:04:23.188Z,99.90
2018-05-19T04:06:55.541Z,99.90
2018-05-19T04:09:28.044Z,99.90
2018-05-19T04:12:01.035Z,99.90
2018-05-19T04:14:33.422Z,99.90
2018-05-19T04:17:05.841Z,99.90
2018-05-19T04:19:38.271Z,99.90
2018-05-19T04:22:11.220Z,99.90
2018-05-19T04:24:44.311Z,99.90
2018-05-19T04:27:16.785Z,99.90
2018-05-19T04:29:49.062Z,99.90
2018-05-19T04:32:24.660Z,99.90
2018-05-19T04:34:57.011Z,99.90
2018-05-19T04:37:29.284Z,99.90
2018-05-19T04:40:01.708Z,99.90
2018-05-19T04:42:34.794Z,99.90
2018-05-19T04:45:08.140Z,99.90
2018-05-19T04:47:40.638Z,99.90
2018-05-19T04:50:12.958Z,99.90
2018-05-19T04:52:45.463Z,99.90
2018-05-19T04:55:18.617Z,99.90
2018-05-19T04:57:50.989Z,99.90
2018-05-19T05:00:23.339Z,99.90
2018-05-19T05:02:55.621Z,99.90
2018-05-19T05:05:27.975Z,99.90
2018-05-19T05:08:00.171Z,99.90
2018-05-19T05:10:33.315Z,99.90
2018-05-19T05:13:05.643Z,99.90
2018-05-19T05:15:38.016Z,99.90
2018-05-19T05:18:10.417Z,99.90
2018-05-19T05:20:42.857Z,99.90
2018-05-19T05:23:15.201Z,99.90
2018-05-19T05:25:47.557Z,99.90
2018-05-19T05:28:20.473Z,99.90
2018-05-19T05:30:52.859Z,99.90
2018-05-19T05:33:26.010Z,99.90
2018-05-19T05:35:58.892Z,99.90
2018-05-19T05:38:25.055Z,99.90
2018-05-19T05:40:51.171Z,99.90
2018-05-19T05:43:23.525Z,99.90
2018-05-19T05:45:55.767Z,99.90
2018-05-19T05:48:28.049Z,99.90
2018-05-19T05:51:00.443Z,99.90
2018-05-19T05:53:32.759Z,99.90
2018-05-19T05:56:05.011Z,99.90
2018-05-19T05:58:37.388Z,99.90
2018-05-19T06:01:09.899Z,99.90
2018-05-19T06:03:42.126Z,99.90
2018-05-19T06:06:14.555Z,99.90
2018-05-19T06:08:46.806Z,99.90
2018-05-19T06:11:19.204Z,99.90
2018-05-19T06:13:51.491Z,99.90
2018-05-19T06:16:23.743Z,99.90
2018-05-19T06:18:56.255Z,99.90
2018-05-19T06:21:28.466Z,99.90
2018-05-19T06:24:00.866Z,99.90
2018-05-19T06:26:33.271Z,99.90
2018-05-19T06:29:05.724Z,99.90
2018-05-19T06:31:38.119Z,99.90
2018-05-19T06:34:10.457Z,99.90
2018-05-19T06:36:43.450Z,99.90
2018-05-19T06:39:15.718Z,99.90
2018-05-19T06:41:48.244Z,99.90
2018-05-19T06:44:21.472Z,99.90
2018-05-19T06:46:53.861Z,99.90
2018-05-19T06:49:26.259Z,99.90
2018-05-19T06:51:58.745Z,99.90
2018-05-19T06:54:30.979Z,99.90
2018-05-19T06:57:03.388Z,99.90
2018-05-19T06:59:35.709Z,99.90
2018-05-19T07:02:08.003Z,99.90
2018-05-19T07:04:40.403Z,99.90
2018-05-19T07:07:12.847Z,99.90
2018-05-19T07:09:45.919Z,99.90
2018-05-19T07:12:18.372Z,99.90
2018-05-19T07:14:50.678Z,99.90
2018-05-19T07:17:23.732Z,99.90
2018-05-19T07:19:56.112Z,99.90
2018-05-19T07:22:28.606Z,99.90
2018-05-19T07:25:00.945Z,99.90
2018-05-19T07:27:33.423Z,99.90
2018-05-19T07:30:05.762Z,99.90
2018-05-19T07:32:38.882Z,99.90
2018-05-19T07:35:11.258Z,99.90
2018-05-19T07:37:43.463Z,99.90
2018-05-19T07:40:15.870Z,99.90
2018-05-19T07:42:48.849Z,99.90
2018-05-19T07:45:21.192Z,99.90
2018-05-19T07:47:53.623Z,99.90
2018-05-19T07:50:26.034Z,99.90
2018-05-19T07:52:58.250Z,99.90
2018-05-19T07:55:30.483Z,99.90
2018-05-19T07:58:02.799Z,99.90
2018-05-19T08:00:35.250Z,99.90
2018-05-19T08:03:07.574Z,99.90
2018-05-19T08:05:39.986Z,99.90
2018-05-19T08:08:13.228Z,99.90
2018-05-19T08:10:45.599Z,99.90
2018-05-19T08:13:18.763Z,99.90
2018-05-19T08:15:51.763Z,99.90
2018-05-19T08:18:24.195Z,99.90
2018-05-19T08:20:56.589Z,99.90
2018-05-19T08:23:28.773Z,99.90
2018-05-19T08:26:01.876Z,99.90
2018-05-19T08:28:34.342Z,99.90
2018-05-19T08:31:06.637Z,99.90
2018-05-19T08:33:39.816Z,99.90
2018-05-19T08:36:12.186Z,99.90
2018-05-19T08:38:45.419Z,99.90
2018-05-19T08:41:19.042Z,99.90
2018-05-19T08:43:52.369Z,99.90
2018-05-19T08:46:24.730Z,99.90
2018-05-19T08:48:57.846Z,99.90
2018-05-19T08:51:30.246Z,99.90
2018-05-19T08:54:02.568Z,99.90
2018-05-19T08:56:34.777Z,99.90
2018-05-19T08:59:07.062Z,99.90
2018-05-19T09:01:39.282Z,99.60
2018-05-19T09:04:11.576Z,99.80
2018-05-19T09:06:43.863Z,99.90
2018-05-19T09:09:16.824Z,99.70
2018-05-19T09:11:49.398Z,99.70
2018-05-19T09:14:21.856Z,99.90
2018-05-19T09:16:54.503Z,99.90
2018-05-19T09:19:27.099Z,99.90
2018-05-19T09:21:59.959Z,99.60
2018-05-19T09:24:32.415Z,99.70
2018-05-19T09:27:05.519Z,99.40
2018-05-19T09:29:37.946Z,99.30
2018-05-19T09:32:10.227Z,99.30
2018-05-19T09:34:42.611Z,99.10
2018-05-19T09:37:15.046Z,99.60
2018-05-19T09:39:47.419Z,99.60
2018-05-19T09:42:19.787Z,99.90
2018-05-19T09:44:52.210Z,99.90
2018-05-19T09:47:25.478Z,99.20
2018-05-19T09:49:57.674Z,99.20
2018-05-19T09:52:30.085Z,99.50
2018-05-19T09:55:02.468Z,99.70
2018-05-19T09:57:34.818Z,99.60
2018-05-19T10:00:07.213Z,99.80
2018-05-19T10:02:39.558Z,99.70
2018-05-19T10:05:12.802Z,99.70
2018-05-19T10:07:45.049Z,99.60
2018-05-19T10:10:17.159Z,99.10
2018-05-19T10:12:49.447Z,98.80
2018-05-19T10:15:21.806Z,99.00
2018-05-19T10:17:54.115Z,98.90
2018-05-19T10:20:26.348Z,98.80
2018-05-19T10:22:58.792Z,98.60
2018-05-19T10:25:31.225Z,98.40
2018-05-19T10:28:03.575Z,99.00
2018-05-19T10:30:35.887Z,98.70
2018-05-19T10:33:08.442Z,98.40
2018-05-19T10:35:41.044Z,98.50
2018-05-19T10:38:14.202Z,98.50
2018-05-19T10:40:47.379Z,98.50
2018-05-19T10:43:19.775Z,98.50
2018-05-19T10:45:52.836Z,98.00
2018-05-19T10:48:25.895Z,98.10
2018-05-19T10:50:58.081Z,98.00
2018-05-19T10:53:30.335Z,98.10
2018-05-19T10:56:02.848Z,98.30
2018-05-19T10:58:35.191Z,97.90
2018-05-19T11:01:08.165Z,97.40
2018-05-19T11:03:41.360Z,96.90
2018-05-19T11:06:13.538Z,96.90
2018-05-19T11:08:46.054Z,96.60
2018-05-19T11:11:18.316Z,97.40
2018-05-19T11:13:50.695Z,97.60
2018-05-19T11:16:23.095Z,97.30
2018-05-19T11:18:56.600Z,97.70
2018-05-19T11:21:28.848Z,98.10
2018-05-19T11:24:01.964Z,97.90
2018-05-19T11:26:34.190Z,97.80
2018-05-19T11:29:06.391Z,98.00
2018-05-19T11:31:38.819Z,97.80
2018-05-19T11:34:11.110Z,97.10
2018-05-19T11:36:43.463Z,97.00
2018-05-19T11:39:16.523Z,97.30
2018-05-19T11:41:48.808Z,97.30
2018-05-19T11:44:21.208Z,97.50
2018-05-19T11:46:54.296Z,97.20
2018-05-19T11:49:26.566Z,97.20
2018-05-19T11:51:58.796Z,97.40
2018-05-19T11:54:31.902Z,97.40
2018-05-19T11:57:04.293Z,97.30
2018-05-19T11:59:36.612Z,97.30
2018-05-19T12:02:09.003Z,97.10
2018-05-19T12:04:41.296Z,96.80
2018-05-19T12:07:14.320Z,96.20
2018-05-19T12:09:46.672Z,96.20
2018-05-19T12:12:19.070Z,96.60
2018-05-19T12:14:54.225Z,97.30
2018-05-19T12:17:26.620Z,97.30
2018-05-19T12:19:59.176Z,97.10
2018-05-19T12:22:31.483Z,96.10
2018-05-19T12:25:03.935Z,96.20
2018-05-19T12:27:36.281Z,95.50
2018-05-19T12:30:08.518Z,96.00
2018-05-19T12:32:40.683Z,96.30
2018-05-19T12:35:12.949Z,96.20
2018-05-19T12:37:45.510Z,96.70
2018-05-19T12:40:18.261Z,96.10
2018-05-19T12:42:50.870Z,96.00
2018-05-19T12:45:23.995Z,95.90
2018-05-19T12:47:56.965Z,96.20
2018-05-19T12:50:29.221Z,96.20
2018-05-19T12:53:01.526Z,95.50
2018-05-19T12:55:33.892Z,95.90
2018-05-19T12:58:06.256Z,96.40
2018-05-19T13:03:48.449Z,95.90
2018-05-19T13:06:20.697Z,96.10
2018-05-19T13:08:53.767Z,94.90
2018-05-19T13:11:26.252Z,94.90
2018-05-19T13:13:58.538Z,94.60
2018-05-19T13:16:30.742Z,94.60
2018-05-19T13:19:02.947Z,95.00
2018-05-19T13:21:36.013Z,94.70
2018-05-19T13:24:08.380Z,94.70
2018-05-19T13:26:40.682Z,94.60
2018-05-19T13:29:07.957Z,93.70
2018-05-19T13:31:35.067Z,94.10
2018-05-19T13:34:02.070Z,93.90
2018-05-19T13:36:28.351Z,93.90
2018-05-19T13:38:54.643Z,93.40
2018-05-19T13:41:20.954Z,94.00
2018-05-19T13:43:47.952Z,93.80
2018-05-19T13:46:14.247Z,93.80
2018-05-19T13:48:40.636Z,93.10
2018-05-19T13:51:06.869Z,92.30
2018-05-19T13:53:33.143Z,91.40
2018-05-19T13:56:02.787Z,91.90
2018-05-19T13:58:35.381Z,92.00
2018-05-19T14:01:01.604Z,91.50
2018-05-19T14:03:27.816Z,91.50
2018-05-19T14:05:54.852Z,91.40
2018-05-19T14:08:21.153Z,91.40
2018-05-19T14:10:49.260Z,91.70
2018-05-19T14:13:15.787Z,91.70
2018-05-19T14:15:42.770Z,91.10
2018-05-19T14:18:09.070Z,91.10
2018-05-19T14:20:35.466Z,90.40
2018-05-19T14:23:01.666Z,88.80
2018-05-19T14:25:28.012Z,88.90
2018-05-19T14:27:54.280Z,87.30
2018-05-19T14:30:20.591Z,84.70
2018-05-19T14:32:47.132Z,82.60
2018-05-19T14:35:14.112Z,78.10
2018-05-19T14:37:40.413Z,78.10
2018-05-19T14:40:06.622Z,76.80
2018-05-19T14:42:32.945Z,75.80
2018-05-19T14:44:59.216Z,74.50
2018-05-19T14:47:25.522Z,73.50
2018-05-19T14:49:52.826Z,71.70
2018-05-19T14:52:19.082Z,70.90
2018-05-19T14:54:45.419Z,70.10
2018-05-19T14:57:12.050Z,69.40
2018-05-19T14:59:39.103Z,66.50
2018-05-19T15:02:06.192Z,67.40
2018-05-19T15:04:32.532Z,67.40
2018-05-19T15:06:59.464Z,67.40
2018-05-19T15:09:25.730Z,67.40
2018-05-19T15:11:52.023Z,66.70
2018-05-19T15:14:18.280Z,67.60
2018-05-19T15:16:44.502Z,67.40
2018-05-19T15:19:11.647Z,69.30
2018-05-19T15:21:37.936Z,69.40
2018-05-19T15:24:04.228Z,70.10
2018-05-19T15:26:32.314Z,70.30
2018-05-19T15:28:58.566Z,69.00
2018-05-19T15:31:24.857Z,68.50
2018-05-19T15:33:51.234Z,68.40
2018-05-19T15:36:17.554Z,67.90
2018-05-19T15:38:43.905Z,68.50
2018-05-19T15:41:10.261Z,68.20
2018-05-19T15:43:37.235Z,67.50
2018-05-19T15:46:03.600Z,67.30
2018-05-19T15:48:30.682Z,66.10
2018-05-19T15:50:56.995Z,66.10
2018-05-19T15:53:23.236Z,66.50
2018-05-19T15:55:49.645Z,67.30
2018-05-19T15:58:15.905Z,66.60
2018-05-19T16:00:42.168Z,66.90
2018-05-19T16:03:08.471Z,67.50
2018-05-19T16:05:35.425Z,66.30
2018-05-19T16:08:02.564Z,66.00
2018-05-19T16:10:28.931Z,66.60
2018-05-19T16:12:55.288Z,65.80
2018-05-19T16:15:21.588Z,65.60
2018-05-19T16:17:48.599Z,65.50
2018-05-19T16:20:15.066Z,65.50
2018-05-19T16:22:41.336Z,66.70
2018-05-19T16:25:08.427Z,67.10
2018-05-19T16:27:35.436Z,67.60
2018-05-19T16:30:01.760Z,67.60
2018-05-19T16:32:28.744Z,66.70
2018-05-19T16:34:55.024Z,66.70
2018-05-19T16:37:21.254Z,67.00
2018-05-19T16:39:49.625Z,66.40
2018-05-19T16:42:16.026Z,66.90
2018-05-19T16:44:42.383Z,66.20
2018-05-19T16:47:08.645Z,66.30
2018-05-19T16:49:34.940Z,65.80
2018-05-19T16:52:02.024Z,66.60
2018-05-19T16:54:29.101Z,66.90
2018-05-19T16:56:55.398Z,66.90
2018-05-19T16:59:22.769Z,67.20
2018-05-19T17:01:49.121Z,67.10
2018-05-19T17:04:16.463Z,67.40
2018-05-19T17:06:42.908Z,67.20
2018-05-19T17:09:10.539Z,66.90
2018-05-19T17:11:36.911Z,67.70
2018-05-19T17:14:03.269Z,68.00
2018-05-19T17:16:29.495Z,68.20
2018-05-19T17:18:56.489Z,68.10
2018-05-19T17:21:22.816Z,68.10
2018-05-19T17:23:49.035Z,68.00
2018-05-19T17:26:15.403Z,67.20
2018-05-19T17:28:42.840Z,67.40
2018-05-19T17:31:09.252Z,67.40
2018-05-19T17:33:35.565Z,67.50
2018-05-19T17:36:01.887Z,67.30
2018-05-19T17:38:28.293Z,67.60
2018-05-19T17:40:54.701Z,67.50
2018-05-19T17:43:21.042Z,67.10
2018-05-19T17:45:47.612Z,67.20
2018-05-19T17:48:14.098Z,68.20
2018-05-19T17:50:41.389Z,67.80
2018-05-19T17:53:07.623Z,68.70
2018-05-19T17:55:34.065Z,68.80
2018-05-19T17:58:01.116Z,69.50
2018-05-19T18:00:27.787Z,69.50
2018-05-19T18:02:54.119Z,70.00
2018-05-19T18:05:21.452Z,70.60
2018-05-19T18:07:47.727Z,70.60
2018-05-19T18:10:14.178Z,71.10
2018-05-19T18:12:41.288Z,71.80
2018-05-19T18:15:07.673Z,71.80
2018-05-19T18:17:34.221Z,71.60
2018-05-19T18:20:00.670Z,72.10
2018-05-19T18:22:27.728Z,73.20
2018-05-19T18:24:53.996Z,73.20
2018-05-19T18:27:20.590Z,73.60
2018-05-19T18:29:47.035Z,73.90
2018-05-19T18:32:13.461Z,73.80
2018-05-19T18:34:40.109Z,74.10
2018-05-19T18:37:06.578Z,74.60
2018-05-19T18:39:32.872Z,75.00
2018-05-19T18:41:59.224Z,75.30
2018-05-19T18:44:25.795Z,75.10
2018-05-19T18:46:52.055Z,75.20
2018-05-19T18:49:18.369Z,75.20
2018-05-19T18:51:44.744Z,75.90
2018-05-19T18:54:11.105Z,76.50
2018-05-19T18:56:38.220Z,77.40
2018-05-19T18:59:05.253Z,77.80
2018-05-19T19:01:32.470Z,78.30
2018-05-19T19:03:59.474Z,78.90
2018-05-19T19:06:25.758Z,79.00
2018-05-19T19:08:52.191Z,79.70
2018-05-19T19:11:18.905Z,80.00
2018-05-19T19:13:45.186Z,80.80
2018-05-19T19:16:11.561Z,81.40
2018-05-19T19:18:38.088Z,82.00
2018-05-19T19:21:04.493Z,82.50
2018-05-19T19:23:31.459Z,83.60
2018-05-19T19:25:57.710Z,83.60
2018-05-19T19:28:23.953Z,84.10
2018-05-19T19:30:50.558Z,84.40
2018-05-19T19:33:17.231Z,85.20
2018-05-19T19:35:44.414Z,86.80
2018-05-19T19:38:10.766Z,86.80
2018-05-19T19:40:37.854Z,88.20
2018-05-19T19:43:04.227Z,88.20
2018-05-19T19:45:30.471Z,88.90
2018-05-19T19:47:57.516Z,90.10
2018-05-19T19:50:24.509Z,90.30
2018-05-19T19:52:50.759Z,90.30
2018-05-19T19:55:17.086Z,90.50
2018-05-19T19:57:43.741Z,90.80
2018-05-19T20:00:10.084Z,91.00
2018-05-19T20:02:36.383Z,91.30
2018-05-19T20:05:02.969Z,91.60
2018-05-19T20:07:29.494Z,91.70
2018-05-19T20:09:56.758Z,92.10
2018-05-19T20:12:23.755Z,92.40
2018-05-19T20:14:50.051Z,92.50
2018-05-19T20:17:16.674Z,92.50
2018-05-19T20:19:44.008Z,92.90
2018-05-19T20:22:10.520Z,92.90
2018-05-19T20:24:37.774Z,93.50
2018-05-19T20:27:04.214Z,93.80
2018-05-19T20:29:31.402Z,93.70
2018-05-19T20:31:58.475Z,94.00
2018-05-19T20:34:25.175Z,94.00
2018-05-19T20:36:52.281Z,94.50
2018-05-19T20:39:18.819Z,94.50
2018-05-19T20:41:46.073Z,95.00
2018-05-19T20:44:13.059Z,95.30
2018-05-19T20:46:39.765Z,95.20
2018-05-19T20:49:06.236Z,95.50
2018-05-19T20:51:32.754Z,96.20
2018-05-19T20:53:59.993Z,96.30
2018-05-19T20:56:26.522Z,96.30
2018-05-19T20:58:52.791Z,96.50
2018-05-19T21:01:19.094Z,96.90
2018-05-19T21:03:45.367Z,97.10
2018-05-19T21:06:11.715Z,97.30
2018-05-19T21:08:38.257Z,97.60
2018-05-19T21:11:05.291Z,98.00
2018-05-19T21:13:32.284Z,97.90
2018-05-19T21:15:58.831Z,98.20
2018-05-19T21:18:25.149Z,98.40
2018-05-19T21:20:51.634Z,98.80
2018-05-19T21:23:18.389Z,99.00
2018-05-19T21:25:44.653Z,99.40
2018-05-19T21:28:11.011Z,99.70
2018-05-19T21:30:37.503Z,99.90
2018-05-19T21:33:03.948Z,99.90
2018-05-19T21:35:30.247Z,99.90
2018-05-19T21:37:56.599Z,99.90
2018-05-19T21:40:23.563Z,99.90
2018-05-19T21:42:49.811Z,99.90
2018-05-19T21:45:16.057Z,99.90
2018-05-19T21:47:42.451Z,99.90
2018-05-19T21:50:09.673Z,99.90
2018-05-19T21:52:36.163Z,99.90
2018-05-19T21:55:03.313Z,99.90
2018-05-19T21:57:29.827Z,99.90
2018-05-19T21:59:56.102Z,99.90
2018-05-19T22:02:22.406Z,99.90
2018-05-19T22:04:48.705Z,99.90
2018-05-19T22:07:15.130Z,99.90
2018-05-19T22:09:42.331Z,99.90
2018-05-19T22:12:08.640Z,99.90
2018-05-19T22:14:34.947Z,99.90
2018-05-19T22:17:01.239Z,99.90
2018-05-19T22:19:27.629Z,99.90
2018-05-19T22:21:53.890Z,99.90
2018-05-19T22:24:21.127Z,99.90
2018-05-19T22:26:47.519Z,99.90
2018-05-19T22:29:13.790Z,99.90
2018-05-19T22:31:40.050Z,99.90
2018-05-19T22:34:06.572Z,99.90
2018-05-19T22:36:32.838Z,99.90
2018-05-19T22:38:59.061Z,99.90
2018-05-19T22:41:25.250Z,99.90
2018-05-19T22:43:51.599Z,99.90
2018-05-19T22:46:18.175Z,99.90
2018-05-19T22:48:44.454Z,99.90
2018-05-19T22:51:10.677Z,99.90
2018-05-19T22:53:36.903Z,99.90
2018-05-19T22:56:03.428Z,99.90
2018-05-19T22:58:30.057Z,99.90
2018-05-19T23:00:56.513Z,99.90
2018-05-19T23:03:22.772Z,99.90
2018-05-19T23:05:49.080Z,99.90
2018-05-19T23:08:16.335Z,99.90
2018-05-19T23:10:42.640Z,99.90
2018-05-19T23:13:09.247Z,99.90
2018-05-19T23:15:35.461Z,99.90
2018-05-19T23:18:01.766Z,99.90
2018-05-19T23:20:28.857Z,99.90
2018-05-19T23:22:55.135Z,99.90
2018-05-19T23:25:22.094Z,99.90
2018-05-19T23:27:48.794Z,99.90
2018-05-19T23:30:15.021Z,99.90
2018-05-19T23:32:42.037Z,99.90
2018-05-19T23:35:09.187Z,99.90
2018-05-19T23:37:35.555Z,99.90
2018-05-19T23:40:02.108Z,99.90
2018-05-19T23:42:28.507Z,99.90
2018-05-19T23:44:54.884Z,99.90
2018-05-19T23:47:21.188Z,99.90
2018-05-19T23:49:47.675Z,99.90
2018-05-19T23:52:13.953Z,99.90
2018-05-19T23:54:40.134Z,99.90
2018-05-19T23:57:07.095Z,99.90
2018-05-19T23:59:33.616Z,99.90
